sensor_id;sensor_type;location;lat;lon;timestamp;P1;durP1;ratioP1;P2;durP2;ratioP2
67867;SDS011;54672;46.096;14.470;2022-08-19T00:01:33;7.80;;;2.97;;
67867;SDS011;54672;46.096;14.470;2022-08-19T00:04:02;9.75;;;3.95;;
67867;SDS011;54672;46.096;14.470;2022-08-19T00:06:29;7.68;;;2.95;;
67867;SDS011;54672;46.096;14.470;2022-08-19T00:08:56;8.57;;;3.25;;
67867;SDS011;54672;46.096;14.470;2022-08-19T00:11:22;6.60;;;3.00;;
67867;SDS011;54672;46.096;14.470;2022-08-19T00:13:49;8.85;;;3.67;;
67867;SDS011;54672;46.096;14.470;2022-08-19T00:16:15;8.27;;;3.45;;
67867;SDS011;54672;46.096;14.470;2022-08-19T00:18:44;8.77;;;3.63;;
67867;SDS011;54672;46.096;14.470;2022-08-19T00:21:10;7.32;;;3.60;;
67867;SDS011;54672;46.096;14.470;2022-08-19T00:23:35;6.72;;;3.80;;
67867;SDS011;54672;46.096;14.470;2022-08-19T00:26:04;5.95;;;3.55;;
67867;SDS011;54672;46.096;14.470;2022-08-19T00:28:31;5.35;;;3.53;;
67867;SDS011;54672;46.096;14.470;2022-08-19T00:30:58;7.65;;;3.58;;
67867;SDS011;54672;46.096;14.470;2022-08-19T00:33:24;8.50;;;3.80;;
67867;SDS011;54672;46.096;14.470;2022-08-19T00:35:49;7.15;;;3.42;;
67867;SDS011;54672;46.096;14.470;2022-08-19T00:38:14;9.45;;;3.50;;
67867;SDS011;54672;46.096;14.470;2022-08-19T00:40:41;8.38;;;3.35;;
67867;SDS011;54672;46.096;14.470;2022-08-19T00:43:09;8.52;;;3.70;;
67867;SDS011;54672;46.096;14.470;2022-08-19T00:45:38;9.85;;;3.90;;
67867;SDS011;54672;46.096;14.470;2022-08-19T00:48:06;4.72;;;3.08;;
67867;SDS011;54672;46.096;14.470;2022-08-19T00:50:32;6.38;;;2.92;;
67867;SDS011;54672;46.096;14.470;2022-08-19T00:52:59;6.82;;;3.45;;
67867;SDS011;54672;46.096;14.470;2022-08-19T00:55:29;6.20;;;3.60;;
67867;SDS011;54672;46.096;14.470;2022-08-19T00:58:02;8.30;;;3.10;;
67867;SDS011;54672;46.096;14.470;2022-08-19T01:00:32;7.03;;;3.20;;
67867;SDS011;54672;46.096;14.470;2022-08-19T01:03:00;6.90;;;3.00;;
67867;SDS011;54672;46.096;14.470;2022-08-19T01:05:26;6.95;;;2.90;;
67867;SDS011;54672;46.096;14.470;2022-08-19T01:07:54;9.02;;;3.97;;
67867;SDS011;54672;46.096;14.470;2022-08-19T01:10:24;12.10;;;3.20;;
67867;SDS011;54672;46.096;14.470;2022-08-19T01:12:52;9.93;;;3.33;;
67867;SDS011;54672;46.096;14.470;2022-08-19T01:15:21;8.02;;;3.35;;
67867;SDS011;54672;46.096;14.470;2022-08-19T01:17:50;6.70;;;3.22;;
67867;SDS011;54672;46.096;14.470;2022-08-19T01:20:18;9.52;;;3.40;;
67867;SDS011;54672;46.096;14.470;2022-08-19T01:22:51;7.65;;;3.55;;
67867;SDS011;54672;46.096;14.470;2022-08-19T01:25:20;8.50;;;2.92;;
67867;SDS011;54672;46.096;14.470;2022-08-19T01:27:49;7.75;;;3.08;;
67867;SDS011;54672;46.096;14.470;2022-08-19T01:30:17;7.72;;;3.47;;
67867;SDS011;54672;46.096;14.470;2022-08-19T01:32:53;9.63;;;3.60;;
67867;SDS011;54672;46.096;14.470;2022-08-19T01:35:20;9.48;;;3.33;;
67867;SDS011;54672;46.096;14.470;2022-08-19T01:37:53;6.18;;;2.95;;
67867;SDS011;54672;46.096;14.470;2022-08-19T01:40:23;6.60;;;3.33;;
67867;SDS011;54672;46.096;14.470;2022-08-19T01:42:52;5.50;;;3.10;;
67867;SDS011;54672;46.096;14.470;2022-08-19T01:45:19;8.10;;;3.00;;
67867;SDS011;54672;46.096;14.470;2022-08-19T01:47:46;5.97;;;3.00;;
67867;SDS011;54672;46.096;14.470;2022-08-19T01:50:11;6.38;;;3.45;;
67867;SDS011;54672;46.096;14.470;2022-08-19T01:52:38;10.52;;;3.63;;
67867;SDS011;54672;46.096;14.470;2022-08-19T01:55:05;8.15;;;3.33;;
67867;SDS011;54672;46.096;14.470;2022-08-19T01:57:33;6.78;;;3.08;;
67867;SDS011;54672;46.096;14.470;2022-08-19T01:59:59;8.10;;;3.30;;
67867;SDS011;54672;46.096;14.470;2022-08-19T02:02:25;10.38;;;3.30;;
67867;SDS011;54672;46.096;14.470;2022-08-19T02:04:51;9.77;;;3.53;;
67867;SDS011;54672;46.096;14.470;2022-08-19T02:07:18;8.70;;;3.17;;
67867;SDS011;54672;46.096;14.470;2022-08-19T02:09:46;6.88;;;3.95;;
67867;SDS011;54672;46.096;14.470;2022-08-19T02:12:13;6.57;;;3.60;;
67867;SDS011;54672;46.096;14.470;2022-08-19T02:14:39;6.57;;;3.80;;
67867;SDS011;54672;46.096;14.470;2022-08-19T02:17:05;8.52;;;3.90;;
67867;SDS011;54672;46.096;14.470;2022-08-19T02:19:31;11.63;;;3.30;;
67867;SDS011;54672;46.096;14.470;2022-08-19T02:21:59;9.07;;;3.55;;
67867;SDS011;54672;46.096;14.470;2022-08-19T02:24:25;6.38;;;3.00;;
67867;SDS011;54672;46.096;14.470;2022-08-19T02:26:51;6.22;;;2.47;;
67867;SDS011;54672;46.096;14.470;2022-08-19T02:29:17;4.72;;;2.10;;
67867;SDS011;54672;46.096;14.470;2022-08-19T02:31:42;4.63;;;1.77;;
67867;SDS011;54672;46.096;14.470;2022-08-19T02:34:08;4.30;;;1.30;;
67867;SDS011;54672;46.096;14.470;2022-08-19T02:36:33;4.30;;;1.58;;
67867;SDS011;54672;46.096;14.470;2022-08-19T02:38:59;4.75;;;1.40;;
67867;SDS011;54672;46.096;14.470;2022-08-19T02:41:25;2.42;;;1.52;;
67867;SDS011;54672;46.096;14.470;2022-08-19T02:43:57;4.57;;;1.70;;
67867;SDS011;54672;46.096;14.470;2022-08-19T02:46:27;4.00;;;1.40;;
67867;SDS011;54672;46.096;14.470;2022-08-19T02:48:55;5.18;;;1.50;;
67867;SDS011;54672;46.096;14.470;2022-08-19T02:51:24;6.22;;;1.70;;
67867;SDS011;54672;46.096;14.470;2022-08-19T02:53:51;4.78;;;1.38;;
67867;SDS011;54672;46.096;14.470;2022-08-19T02:56:17;2.92;;;1.40;;
67867;SDS011;54672;46.096;14.470;2022-08-19T02:58:43;4.70;;;1.35;;
67867;SDS011;54672;46.096;14.470;2022-08-19T03:01:09;3.70;;;1.50;;
67867;SDS011;54672;46.096;14.470;2022-08-19T03:03:36;5.15;;;1.80;;
67867;SDS011;54672;46.096;14.470;2022-08-19T03:06:10;6.95;;;2.17;;
67867;SDS011;54672;46.096;14.470;2022-08-19T03:08:41;5.55;;;1.65;;
67867;SDS011;54672;46.096;14.470;2022-08-19T03:11:17;5.97;;;1.70;;
67867;SDS011;54672;46.096;14.470;2022-08-19T03:13:47;3.72;;;1.70;;
67867;SDS011;54672;46.096;14.470;2022-08-19T03:16:18;6.35;;;2.00;;
67867;SDS011;54672;46.096;14.470;2022-08-19T03:18:44;5.18;;;2.25;;
67867;SDS011;54672;46.096;14.470;2022-08-19T03:21:14;8.85;;;2.35;;
67867;SDS011;54672;46.096;14.470;2022-08-19T03:23:41;4.68;;;2.22;;
67867;SDS011;54672;46.096;14.470;2022-08-19T03:26:06;4.80;;;2.25;;
67867;SDS011;54672;46.096;14.470;2022-08-19T03:28:32;7.72;;;2.25;;
67867;SDS011;54672;46.096;14.470;2022-08-19T03:30:59;5.43;;;2.50;;
67867;SDS011;54672;46.096;14.470;2022-08-19T03:33:27;5.50;;;2.03;;
67867;SDS011;54672;46.096;14.470;2022-08-19T03:36:04;10.35;;;2.30;;
67867;SDS011;54672;46.096;14.470;2022-08-19T03:38:37;7.45;;;2.30;;
67867;SDS011;54672;46.096;14.470;2022-08-19T03:41:09;3.83;;;2.10;;
67867;SDS011;54672;46.096;14.470;2022-08-19T03:43:38;6.10;;;2.00;;
67867;SDS011;54672;46.096;14.470;2022-08-19T03:46:06;5.85;;;2.30;;
67867;SDS011;54672;46.096;14.470;2022-08-19T03:48:33;9.13;;;2.55;;
67867;SDS011;54672;46.096;14.470;2022-08-19T03:51:00;6.18;;;2.92;;
67867;SDS011;54672;46.096;14.470;2022-08-19T03:53:27;5.55;;;2.28;;
67867;SDS011;54672;46.096;14.470;2022-08-19T03:55:54;6.65;;;2.22;;
67867;SDS011;54672;46.096;14.470;2022-08-19T03:58:20;8.77;;;2.88;;
67867;SDS011;54672;46.096;14.470;2022-08-19T04:00:46;9.75;;;2.60;;
67867;SDS011;54672;46.096;14.470;2022-08-19T04:03:12;8.30;;;2.30;;
67867;SDS011;54672;46.096;14.470;2022-08-19T04:05:37;7.35;;;2.38;;
67867;SDS011;54672;46.096;14.470;2022-08-19T04:08:03;6.63;;;2.13;;
67867;SDS011;54672;46.096;14.470;2022-08-19T04:10:31;6.35;;;2.30;;
67867;SDS011;54672;46.096;14.470;2022-08-19T04:13:00;6.18;;;2.15;;
67867;SDS011;54672;46.096;14.470;2022-08-19T04:15:26;6.78;;;2.30;;
67867;SDS011;54672;46.096;14.470;2022-08-19T04:17:53;5.60;;;2.17;;
67867;SDS011;54672;46.096;14.470;2022-08-19T04:20:19;7.43;;;2.30;;
67867;SDS011;54672;46.096;14.470;2022-08-19T04:22:45;6.72;;;2.50;;
67867;SDS011;54672;46.096;14.470;2022-08-19T04:25:10;4.70;;;2.40;;
67867;SDS011;54672;46.096;14.470;2022-08-19T04:27:36;6.50;;;2.53;;
67867;SDS011;54672;46.096;14.470;2022-08-19T04:30:01;7.22;;;2.35;;
67867;SDS011;54672;46.096;14.470;2022-08-19T04:32:27;6.13;;;2.50;;
67867;SDS011;54672;46.096;14.470;2022-08-19T04:34:53;4.95;;;2.22;;
67867;SDS011;54672;46.096;14.470;2022-08-19T04:37:24;4.40;;;2.20;;
67867;SDS011;54672;46.096;14.470;2022-08-19T04:39:51;3.53;;;2.08;;
67867;SDS011;54672;46.096;14.470;2022-08-19T04:42:35;5.50;;;2.13;;
67867;SDS011;54672;46.096;14.470;2022-08-19T04:45:07;5.30;;;2.08;;
67867;SDS011;54672;46.096;14.470;2022-08-19T04:47:36;4.20;;;2.28;;
67867;SDS011;54672;46.096;14.470;2022-08-19T04:50:03;5.40;;;2.58;;
67867;SDS011;54672;46.096;14.470;2022-08-19T04:52:29;4.85;;;2.40;;
67867;SDS011;54672;46.096;14.470;2022-08-19T04:54:56;6.47;;;2.35;;
67867;SDS011;54672;46.096;14.470;2022-08-19T04:57:21;8.38;;;2.20;;
67867;SDS011;54672;46.096;14.470;2022-08-19T04:59:47;6.32;;;2.30;;
67867;SDS011;54672;46.096;14.470;2022-08-19T05:02:13;5.43;;;1.98;;
67867;SDS011;54672;46.096;14.470;2022-08-19T05:04:38;6.85;;;2.05;;
67867;SDS011;54672;46.096;14.470;2022-08-19T05:07:05;5.60;;;1.92;;
67867;SDS011;54672;46.096;14.470;2022-08-19T05:09:31;6.15;;;2.15;;
67867;SDS011;54672;46.096;14.470;2022-08-19T05:11:56;4.10;;;1.55;;
67867;SDS011;54672;46.096;14.470;2022-08-19T05:14:22;5.70;;;1.85;;
67867;SDS011;54672;46.096;14.470;2022-08-19T05:16:48;8.50;;;2.00;;
67867;SDS011;54672;46.096;14.470;2022-08-19T05:19:13;4.82;;;2.55;;
67867;SDS011;54672;46.096;14.470;2022-08-19T05:21:59;6.03;;;1.70;;
67867;SDS011;54672;46.096;14.470;2022-08-19T05:24:44;4.55;;;1.60;;
67867;SDS011;54672;46.096;14.470;2022-08-19T05:27:09;5.93;;;2.00;;
67867;SDS011;54672;46.096;14.470;2022-08-19T05:29:34;7.55;;;2.03;;
67867;SDS011;54672;46.096;14.470;2022-08-19T05:32:01;4.05;;;1.67;;
67867;SDS011;54672;46.096;14.470;2022-08-19T05:34:29;3.05;;;1.67;;
67867;SDS011;54672;46.096;14.470;2022-08-19T05:36:56;4.97;;;1.85;;
67867;SDS011;54672;46.096;14.470;2022-08-19T05:39:24;3.40;;;1.60;;
67867;SDS011;54672;46.096;14.470;2022-08-19T05:41:54;3.92;;;1.50;;
67867;SDS011;54672;46.096;14.470;2022-08-19T05:44:22;3.08;;;1.50;;
67867;SDS011;54672;46.096;14.470;2022-08-19T05:46:49;6.40;;;1.70;;
67867;SDS011;54672;46.096;14.470;2022-08-19T05:49:18;5.50;;;1.48;;
67867;SDS011;54672;46.096;14.470;2022-08-19T05:51:44;3.63;;;1.60;;
67867;SDS011;54672;46.096;14.470;2022-08-19T05:54:10;4.80;;;1.55;;
67867;SDS011;54672;46.096;14.470;2022-08-19T05:56:38;6.45;;;1.75;;
67867;SDS011;54672;46.096;14.470;2022-08-19T05:59:04;4.00;;;1.40;;
67867;SDS011;54672;46.096;14.470;2022-08-19T06:01:34;3.58;;;1.80;;
67867;SDS011;54672;46.096;14.470;2022-08-19T06:04:00;4.65;;;1.90;;
67867;SDS011;54672;46.096;14.470;2022-08-19T06:06:26;4.45;;;2.10;;
67867;SDS011;54672;46.096;14.470;2022-08-19T06:08:51;5.38;;;2.63;;
67867;SDS011;54672;46.096;14.470;2022-08-19T06:11:21;6.68;;;2.88;;
67867;SDS011;54672;46.096;14.470;2022-08-19T06:14:00;6.15;;;2.20;;
67867;SDS011;54672;46.096;14.470;2022-08-19T06:16:28;8.30;;;2.25;;
67867;SDS011;54672;46.096;14.470;2022-08-19T06:18:56;4.35;;;2.13;;
67867;SDS011;54672;46.096;14.470;2022-08-19T06:21:25;7.22;;;2.30;;
67867;SDS011;54672;46.096;14.470;2022-08-19T06:23:52;7.05;;;2.58;;
67867;SDS011;54672;46.096;14.470;2022-08-19T06:26:19;5.63;;;2.10;;
67867;SDS011;54672;46.096;14.470;2022-08-19T06:28:45;5.03;;;1.92;;
67867;SDS011;54672;46.096;14.470;2022-08-19T06:31:13;5.25;;;2.30;;
67867;SDS011;54672;46.096;14.470;2022-08-19T06:33:39;4.15;;;2.20;;
67867;SDS011;54672;46.096;14.470;2022-08-19T06:36:06;4.97;;;1.95;;
67867;SDS011;54672;46.096;14.470;2022-08-19T06:38:32;7.10;;;2.60;;
67867;SDS011;54672;46.096;14.470;2022-08-19T06:41:02;5.82;;;2.45;;
67867;SDS011;54672;46.096;14.470;2022-08-19T06:43:29;4.78;;;1.95;;
67867;SDS011;54672;46.096;14.470;2022-08-19T06:45:54;7.63;;;1.90;;
67867;SDS011;54672;46.096;14.470;2022-08-19T06:48:20;8.10;;;1.88;;
67867;SDS011;54672;46.096;14.470;2022-08-19T06:50:45;6.05;;;2.08;;
67867;SDS011;54672;46.096;14.470;2022-08-19T06:53:12;7.32;;;2.78;;
67867;SDS011;54672;46.096;14.470;2022-08-19T06:55:37;5.32;;;1.90;;
67867;SDS011;54672;46.096;14.470;2022-08-19T06:58:05;6.55;;;2.50;;
67867;SDS011;54672;46.096;14.470;2022-08-19T07:00:30;5.32;;;1.80;;
67867;SDS011;54672;46.096;14.470;2022-08-19T07:02:56;4.35;;;1.88;;
67867;SDS011;54672;46.096;14.470;2022-08-19T07:05:22;6.78;;;2.10;;
67867;SDS011;54672;46.096;14.470;2022-08-19T07:07:47;3.75;;;1.60;;
67867;SDS011;54672;46.096;14.470;2022-08-19T07:10:13;6.65;;;2.17;;
67867;SDS011;54672;46.096;14.470;2022-08-19T07:12:38;5.10;;;1.50;;
67867;SDS011;54672;46.096;14.470;2022-08-19T07:15:06;4.82;;;1.80;;
67867;SDS011;54672;46.096;14.470;2022-08-19T07:17:33;5.07;;;2.08;;
67867;SDS011;54672;46.096;14.470;2022-08-19T07:20:02;3.63;;;1.30;;
67867;SDS011;54672;46.096;14.470;2022-08-19T07:22:28;4.22;;;1.52;;
67867;SDS011;54672;46.096;14.470;2022-08-19T07:24:53;4.80;;;1.38;;
67867;SDS011;54672;46.096;14.470;2022-08-19T07:27:19;5.65;;;1.85;;
67867;SDS011;54672;46.096;14.470;2022-08-19T07:29:44;2.92;;;1.65;;
67867;SDS011;54672;46.096;14.470;2022-08-19T07:32:10;4.13;;;1.80;;
67867;SDS011;54672;46.096;14.470;2022-08-19T07:34:36;3.80;;;1.85;;
67867;SDS011;54672;46.096;14.470;2022-08-19T07:37:03;5.63;;;1.90;;
67867;SDS011;54672;46.096;14.470;2022-08-19T07:39:32;4.15;;;1.73;;
67867;SDS011;54672;46.096;14.470;2022-08-19T07:42:00;3.92;;;1.67;;
67867;SDS011;54672;46.096;14.470;2022-08-19T07:44:29;4.78;;;1.70;;
67867;SDS011;54672;46.096;14.470;2022-08-19T07:46:55;2.88;;;1.60;;
67867;SDS011;54672;46.096;14.470;2022-08-19T07:49:22;6.35;;;1.60;;
67867;SDS011;54672;46.096;14.470;2022-08-19T07:51:56;6.95;;;1.70;;
67867;SDS011;54672;46.096;14.470;2022-08-19T07:54:27;4.10;;;1.50;;
67867;SDS011;54672;46.096;14.470;2022-08-19T07:56:55;6.32;;;1.75;;
67867;SDS011;54672;46.096;14.470;2022-08-19T07:59:22;3.38;;;1.60;;
67867;SDS011;54672;46.096;14.470;2022-08-19T08:01:48;4.97;;;1.48;;
67867;SDS011;54672;46.096;14.470;2022-08-19T08:04:15;3.15;;;1.35;;
67867;SDS011;54672;46.096;14.470;2022-08-19T08:07:00;4.53;;;1.50;;
67867;SDS011;54672;46.096;14.470;2022-08-19T08:09:44;3.63;;;1.45;;
67867;SDS011;54672;46.096;14.470;2022-08-19T08:12:11;5.30;;;1.80;;
67867;SDS011;54672;46.096;14.470;2022-08-19T08:14:59;3.30;;;1.13;;
67867;SDS011;54672;46.096;14.470;2022-08-19T08:17:28;3.22;;;1.40;;
67867;SDS011;54672;46.096;14.470;2022-08-19T08:19:54;3.22;;;1.40;;
67867;SDS011;54672;46.096;14.470;2022-08-19T08:22:21;3.17;;;1.50;;
67867;SDS011;54672;46.096;14.470;2022-08-19T08:25:07;3.45;;;1.30;;
67867;SDS011;54672;46.096;14.470;2022-08-19T08:27:39;3.78;;;1.30;;
67867;SDS011;54672;46.096;14.470;2022-08-19T08:30:06;6.20;;;1.45;;
67867;SDS011;54672;46.096;14.470;2022-08-19T08:32:35;4.18;;;1.92;;
67867;SDS011;54672;46.096;14.470;2022-08-19T08:35:02;5.88;;;1.88;;
67867;SDS011;54672;46.096;14.470;2022-08-19T08:37:32;4.13;;;1.48;;
67867;SDS011;54672;46.096;14.470;2022-08-19T08:39:58;2.75;;;1.60;;
67867;SDS011;54672;46.096;14.470;2022-08-19T08:45:00;5.18;;;1.65;;
67867;SDS011;54672;46.096;14.470;2022-08-19T08:47:32;6.57;;;2.00;;
67867;SDS011;54672;46.096;14.470;2022-08-19T08:50:04;4.55;;;1.80;;
67867;SDS011;54672;46.096;14.470;2022-08-19T08:52:34;2.55;;;1.30;;
67867;SDS011;54672;46.096;14.470;2022-08-19T08:55:08;4.40;;;1.85;;
67867;SDS011;54672;46.096;14.470;2022-08-19T09:00:20;2.92;;;1.25;;
67867;SDS011;54672;46.096;14.470;2022-08-19T09:02:49;2.53;;;1.13;;
67867;SDS011;54672;46.096;14.470;2022-08-19T09:05:14;2.58;;;1.40;;
67867;SDS011;54672;46.096;14.470;2022-08-19T09:07:55;2.33;;;1.10;;
67867;SDS011;54672;46.096;14.470;2022-08-19T09:15:43;4.55;;;1.23;;
67867;SDS011;54672;46.096;14.470;2022-08-19T09:18:13;6.53;;;1.52;;
67867;SDS011;54672;46.096;14.470;2022-08-19T09:20:39;3.20;;;1.17;;
67867;SDS011;54672;46.096;14.470;2022-08-19T09:23:04;6.32;;;1.70;;
67867;SDS011;54672;46.096;14.470;2022-08-19T09:25:30;4.25;;;1.95;;
67867;SDS011;54672;46.096;14.470;2022-08-19T09:27:56;4.00;;;1.30;;
67867;SDS011;54672;46.096;14.470;2022-08-19T09:30:23;3.78;;;1.42;;
67867;SDS011;54672;46.096;14.470;2022-08-19T09:32:51;3.83;;;1.50;;
67867;SDS011;54672;46.096;14.470;2022-08-19T09:35:23;3.45;;;1.70;;
67867;SDS011;54672;46.096;14.470;2022-08-19T09:37:54;3.65;;;1.42;;
67867;SDS011;54672;46.096;14.470;2022-08-19T09:40:21;3.45;;;1.42;;
67867;SDS011;54672;46.096;14.470;2022-08-19T09:42:47;5.78;;;1.83;;
67867;SDS011;54672;46.096;14.470;2022-08-19T09:45:13;4.07;;;1.67;;
67867;SDS011;54672;46.096;14.470;2022-08-19T09:47:40;4.85;;;1.60;;
67867;SDS011;54672;46.096;14.470;2022-08-19T09:50:06;3.05;;;1.52;;
67867;SDS011;54672;46.096;14.470;2022-08-19T09:52:33;3.40;;;1.55;;
67867;SDS011;54672;46.096;14.470;2022-08-19T09:55:03;5.32;;;2.05;;
67867;SDS011;54672;46.096;14.470;2022-08-19T09:57:29;4.65;;;2.28;;
67867;SDS011;54672;46.096;14.470;2022-08-19T09:59:55;5.15;;;2.00;;
67867;SDS011;54672;46.096;14.470;2022-08-19T10:02:20;3.97;;;1.77;;
67867;SDS011;54672;46.096;14.470;2022-08-19T10:04:46;5.95;;;1.95;;
67867;SDS011;54672;46.096;14.470;2022-08-19T10:07:29;5.18;;;2.15;;
67867;SDS011;54672;46.096;14.470;2022-08-19T10:09:55;4.70;;;1.85;;
67867;SDS011;54672;46.096;14.470;2022-08-19T10:12:21;6.60;;;2.08;;
67867;SDS011;54672;46.096;14.470;2022-08-19T10:14:47;4.45;;;1.92;;
67867;SDS011;54672;46.096;14.470;2022-08-19T10:17:13;5.10;;;2.50;;
67867;SDS011;54672;46.096;14.470;2022-08-19T10:19:39;5.18;;;2.08;;
67867;SDS011;54672;46.096;14.470;2022-08-19T10:22:06;4.47;;;1.92;;
67867;SDS011;54672;46.096;14.470;2022-08-19T10:24:32;7.38;;;2.05;;
67867;SDS011;54672;46.096;14.470;2022-08-19T10:27:00;4.60;;;2.00;;
67867;SDS011;54672;46.096;14.470;2022-08-19T10:29:28;3.80;;;2.00;;
67867;SDS011;54672;46.096;14.470;2022-08-19T10:31:54;7.78;;;2.17;;
67867;SDS011;54672;46.096;14.470;2022-08-19T10:34:20;4.15;;;1.90;;
67867;SDS011;54672;46.096;14.470;2022-08-19T10:36:46;6.70;;;2.30;;
67867;SDS011;54672;46.096;14.470;2022-08-19T10:39:12;3.25;;;2.00;;
67867;SDS011;54672;46.096;14.470;2022-08-19T10:41:38;4.60;;;2.40;;
67867;SDS011;54672;46.096;14.470;2022-08-19T10:44:06;4.68;;;1.92;;
67867;SDS011;54672;46.096;14.470;2022-08-19T10:46:34;5.68;;;2.10;;
67867;SDS011;54672;46.096;14.470;2022-08-19T10:49:02;5.80;;;2.08;;
67867;SDS011;54672;46.096;14.470;2022-08-19T10:51:28;5.95;;;2.05;;
67867;SDS011;54672;46.096;14.470;2022-08-19T10:54:12;5.15;;;1.90;;
67867;SDS011;54672;46.096;14.470;2022-08-19T10:56:38;5.32;;;2.25;;
67867;SDS011;54672;46.096;14.470;2022-08-19T10:59:24;5.80;;;2.40;;
67867;SDS011;54672;46.096;14.470;2022-08-19T11:01:52;5.43;;;2.58;;
67867;SDS011;54672;46.096;14.470;2022-08-19T11:04:19;5.65;;;2.25;;
67867;SDS011;54672;46.096;14.470;2022-08-19T11:06:45;3.97;;;2.00;;
67867;SDS011;54672;46.096;14.470;2022-08-19T11:09:13;5.80;;;2.00;;
67867;SDS011;54672;46.096;14.470;2022-08-19T11:11:40;7.07;;;2.10;;
67867;SDS011;54672;46.096;14.470;2022-08-19T11:14:10;6.22;;;1.95;;
67867;SDS011;54672;46.096;14.470;2022-08-19T11:16:38;5.60;;;2.03;;
67867;SDS011;54672;46.096;14.470;2022-08-19T11:19:05;7.47;;;2.25;;
67867;SDS011;54672;46.096;14.470;2022-08-19T11:21:37;5.05;;;2.30;;
67867;SDS011;54672;46.096;14.470;2022-08-19T11:24:08;5.65;;;2.08;;
67867;SDS011;54672;46.096;14.470;2022-08-19T11:26:36;4.93;;;2.20;;
67867;SDS011;54672;46.096;14.470;2022-08-19T11:29:03;5.25;;;2.10;;
67867;SDS011;54672;46.096;14.470;2022-08-19T11:31:31;3.60;;;2.00;;
67867;SDS011;54672;46.096;14.470;2022-08-19T11:33:58;6.95;;;2.50;;
67867;SDS011;54672;46.096;14.470;2022-08-19T11:36:26;3.70;;;2.03;;
67867;SDS011;54672;46.096;14.470;2022-08-19T11:38:53;4.43;;;1.88;;
67867;SDS011;54672;46.096;14.470;2022-08-19T11:41:19;4.07;;;1.90;;
67867;SDS011;54672;46.096;14.470;2022-08-19T11:43:46;4.40;;;2.00;;
67867;SDS011;54672;46.096;14.470;2022-08-19T11:46:12;3.53;;;1.98;;
67867;SDS011;54672;46.096;14.470;2022-08-19T11:48:39;4.82;;;2.00;;
67867;SDS011;54672;46.096;14.470;2022-08-19T11:51:07;5.97;;;1.75;;
67867;SDS011;54672;46.096;14.470;2022-08-19T11:53:35;3.50;;;1.85;;
67867;SDS011;54672;46.096;14.470;2022-08-19T11:56:02;4.63;;;2.03;;
67867;SDS011;54672;46.096;14.470;2022-08-19T11:58:28;5.47;;;1.88;;
67867;SDS011;54672;46.096;14.470;2022-08-19T12:00:54;6.28;;;2.20;;
67867;SDS011;54672;46.096;14.470;2022-08-19T12:03:19;3.72;;;1.65;;
67867;SDS011;54672;46.096;14.470;2022-08-19T12:05:45;6.07;;;2.00;;
67867;SDS011;54672;46.096;14.470;2022-08-19T12:08:11;5.75;;;2.30;;
67867;SDS011;54672;46.096;14.470;2022-08-19T12:10:38;4.20;;;2.10;;
67867;SDS011;54672;46.096;14.470;2022-08-19T12:13:04;6.65;;;2.55;;
67867;SDS011;54672;46.096;14.470;2022-08-19T12:15:35;5.93;;;2.03;;
67867;SDS011;54672;46.096;14.470;2022-08-19T12:18:06;6.00;;;2.40;;
67867;SDS011;54672;46.096;14.470;2022-08-19T12:20:36;5.40;;;2.20;;
67867;SDS011;54672;46.096;14.470;2022-08-19T12:23:04;4.97;;;2.15;;
67867;SDS011;54672;46.096;14.470;2022-08-19T12:25:31;5.70;;;2.30;;
67867;SDS011;54672;46.096;14.470;2022-08-19T12:27:56;4.75;;;2.25;;
67867;SDS011;54672;46.096;14.470;2022-08-19T12:30:22;4.55;;;2.20;;
67867;SDS011;54672;46.096;14.470;2022-08-19T12:32:48;4.55;;;2.08;;
67867;SDS011;54672;46.096;14.470;2022-08-19T12:35:16;8.80;;;2.63;;
67867;SDS011;54672;46.096;14.470;2022-08-19T12:37:42;6.07;;;2.28;;
67867;SDS011;54672;46.096;14.470;2022-08-19T12:40:10;6.28;;;2.40;;
67867;SDS011;54672;46.096;14.470;2022-08-19T12:42:37;9.35;;;2.40;;
67867;SDS011;54672;46.096;14.470;2022-08-19T12:45:06;8.90;;;2.50;;
67867;SDS011;54672;46.096;14.470;2022-08-19T12:47:32;11.15;;;3.08;;
67867;SDS011;54672;46.096;14.470;2022-08-19T12:49:57;9.25;;;3.08;;
67867;SDS011;54672;46.096;14.470;2022-08-19T12:52:24;7.10;;;2.35;;
67867;SDS011;54672;46.096;14.470;2022-08-19T12:54:55;9.38;;;3.15;;
67867;SDS011;54672;46.096;14.470;2022-08-19T12:57:25;7.15;;;2.42;;
67867;SDS011;54672;46.096;14.470;2022-08-19T12:59:52;4.43;;;2.03;;
67867;SDS011;54672;46.096;14.470;2022-08-19T13:02:21;10.00;;;2.75;;
67867;SDS011;54672;46.096;14.470;2022-08-19T13:04:47;5.18;;;2.13;;
67867;SDS011;54672;46.096;14.470;2022-08-19T13:07:12;5.35;;;2.60;;
67867;SDS011;54672;46.096;14.470;2022-08-19T13:09:38;6.47;;;3.13;;
67867;SDS011;54672;46.096;14.470;2022-08-19T13:12:06;7.53;;;2.70;;
67867;SDS011;54672;46.096;14.470;2022-08-19T13:14:33;6.80;;;2.38;;
67867;SDS011;54672;46.096;14.470;2022-08-19T13:16:59;6.35;;;2.33;;
67867;SDS011;54672;46.096;14.470;2022-08-19T13:19:25;5.43;;;1.98;;
67867;SDS011;54672;46.096;14.470;2022-08-19T13:21:51;8.98;;;1.80;;
67867;SDS011;54672;46.096;14.470;2022-08-19T13:24:17;7.30;;;2.67;;
67867;SDS011;54672;46.096;14.470;2022-08-19T13:26:43;6.38;;;2.70;;
67867;SDS011;54672;46.096;14.470;2022-08-19T13:29:09;6.93;;;2.42;;
67867;SDS011;54672;46.096;14.470;2022-08-19T13:31:53;7.13;;;1.77;;
67867;SDS011;54672;46.096;14.470;2022-08-19T13:34:37;6.22;;;1.95;;
67867;SDS011;54672;46.096;14.470;2022-08-19T13:37:03;5.15;;;1.98;;
67867;SDS011;54672;46.096;14.470;2022-08-19T13:39:29;5.30;;;1.90;;
67867;SDS011;54672;46.096;14.470;2022-08-19T13:41:57;5.93;;;1.90;;
67867;SDS011;54672;46.096;14.470;2022-08-19T13:44:25;6.95;;;2.10;;
67867;SDS011;54672;46.096;14.470;2022-08-19T13:46:54;2.65;;;1.73;;
67867;SDS011;54672;46.096;14.470;2022-08-19T13:49:24;4.72;;;2.13;;
67867;SDS011;54672;46.096;14.470;2022-08-19T13:51:49;7.32;;;2.40;;
67867;SDS011;54672;46.096;14.470;2022-08-19T13:54:15;5.13;;;2.30;;
67867;SDS011;54672;46.096;14.470;2022-08-19T13:56:41;4.57;;;1.70;;
67867;SDS011;54672;46.096;14.470;2022-08-19T13:59:09;5.28;;;2.08;;
67867;SDS011;54672;46.096;14.470;2022-08-19T14:01:34;5.95;;;2.28;;
67867;SDS011;54672;46.096;14.470;2022-08-19T14:04:01;5.25;;;2.40;;
67867;SDS011;54672;46.096;14.470;2022-08-19T14:06:27;4.53;;;1.90;;
67867;SDS011;54672;46.096;14.470;2022-08-19T14:08:52;9.18;;;2.75;;
67867;SDS011;54672;46.096;14.470;2022-08-19T14:11:18;7.05;;;2.63;;
67867;SDS011;54672;46.096;14.470;2022-08-19T14:13:44;6.70;;;2.92;;
67867;SDS011;54672;46.096;14.470;2022-08-19T14:16:11;4.97;;;2.60;;
67867;SDS011;54672;46.096;14.470;2022-08-19T14:18:38;3.97;;;2.42;;
67867;SDS011;54672;46.096;14.470;2022-08-19T14:21:04;5.30;;;2.67;;
67867;SDS011;54672;46.096;14.470;2022-08-19T14:23:31;11.15;;;3.30;;
67867;SDS011;54672;46.096;14.470;2022-08-19T14:26:07;7.30;;;2.80;;
67867;SDS011;54672;46.096;14.470;2022-08-19T14:28:33;7.63;;;2.80;;
67867;SDS011;54672;46.096;14.470;2022-08-19T14:30:59;4.13;;;2.35;;
67867;SDS011;54672;46.096;14.470;2022-08-19T14:33:24;7.20;;;2.20;;
67867;SDS011;54672;46.096;14.470;2022-08-19T14:35:50;7.57;;;2.17;;
67867;SDS011;54672;46.096;14.470;2022-08-19T14:38:16;6.30;;;2.30;;
67867;SDS011;54672;46.096;14.470;2022-08-19T14:40:43;4.50;;;2.20;;
67867;SDS011;54672;46.096;14.470;2022-08-19T14:43:08;3.95;;;2.00;;
67867;SDS011;54672;46.096;14.470;2022-08-19T14:45:35;3.70;;;2.33;;
67867;SDS011;54672;46.096;14.470;2022-08-19T14:48:03;4.43;;;2.08;;